Terminal Aerodrome Forecast
Issued by NWS Binghamton, NY

Home | Current Version | Previous Version | Text Only | Print | Product List | Glossary On
Versions: 1 2 3 4 5 6 7 8 9 10 11 12 13 14 15 16 17 18
133
FTUS41 KBGM 171142
TAFSYR
TAF
KSYR 171142Z 1712/1812 VRB03KT P6SM SCT028
      TEMPO 1712/1714 BKN028
     FM171500 VRB03KT P6SM SCT120 BKN250
     FM172300 10003KT P6SM OVC100
     FM180300 10005KT P6SM OVC040
     FM180700 10005KT P6SM OVC025=

USA.gov is the U.S. government's official web portal to all federal, state and local government web resources and services.